sensor_id;sensor_type;location;lat;lon;timestamp;pressure;altitude;pressure_sealevel;temperature;humidity
16030;BME280;34770;49.272;11.070;2023-05-21T00:01:39;97400.59;;;18.45;57.92
16030;BME280;34770;49.272;11.070;2023-05-21T00:04:05;97392.50;;;18.37;58.05
16030;BME280;34770;49.272;11.070;2023-05-21T00:06:33;97388.25;;;18.35;58.14
16030;BME280;34770;49.272;11.070;2023-05-21T00:09:01;97409.84;;;18.44;58.39
16030;BME280;34770;49.272;11.070;2023-05-21T00:11:27;97392.50;;;18.37;58.63
16030;BME280;34770;49.272;11.070;2023-05-21T00:13:53;97402.22;;;18.40;58.20
16030;BME280;34770;49.272;11.070;2023-05-21T00:16:18;97393.34;;;18.38;58.14
16030;BME280;34770;49.272;11.070;2023-05-21T00:18:44;97387.47;;;18.41;58.48
16030;BME280;34770;49.272;11.070;2023-05-21T00:21:09;97391.25;;;18.40;58.35
16030;BME280;34770;49.272;11.070;2023-05-21T00:23:36;97392.00;;;18.34;58.50
16030;BME280;34770;49.272;11.070;2023-05-21T00:26:03;97387.78;;;18.31;59.00
16030;BME280;34770;49.272;11.070;2023-05-21T00:28:29;97381.19;;;18.26;58.66
16030;BME280;34770;49.272;11.070;2023-05-21T00:30:54;97376.28;;;18.21;58.77
16030;BME280;34770;49.272;11.070;2023-05-21T00:33:20;97372.34;;;18.30;58.45
16030;BME280;34770;49.272;11.070;2023-05-21T00:35:46;97391.16;;;18.33;58.42
16030;BME280;34770;49.272;11.070;2023-05-21T00:38:11;97384.00;;;18.32;58.74
16030;BME280;34770;49.272;11.070;2023-05-21T00:40:38;97373.41;;;18.29;58.44
16030;BME280;34770;49.272;11.070;2023-05-21T00:43:05;97354.53;;;18.20;58.68
16030;BME280;34770;49.272;11.070;2023-05-21T00:45:35;97354.91;;;18.17;59.04
16030;BME280;34770;49.272;11.070;2023-05-21T00:48:02;97360.00;;;18.20;58.83
16030;BME280;34770;49.272;11.070;2023-05-21T00:50:29;97334.34;;;18.06;59.05
16030;BME280;34770;49.272;11.070;2023-05-21T00:52:55;97352.28;;;18.09;59.04
16030;BME280;34770;49.272;11.070;2023-05-21T00:55:21;97367.38;;;18.19;59.25
16030;BME280;34770;49.272;11.070;2023-05-21T00:57:46;97342.56;;;18.06;59.17
16030;BME280;34770;49.272;11.070;2023-05-21T01:00:14;97350.19;;;18.11;59.31
16030;BME280;34770;49.272;11.070;2023-05-21T01:02:40;97359.16;;;18.19;59.34
16030;BME280;34770;49.272;11.070;2023-05-21T01:05:06;97334.25;;;18.00;59.97
16030;BME280;34770;49.272;11.070;2023-05-21T01:07:37;97365.34;;;18.07;60.29
16030;BME280;34770;49.272;11.070;2023-05-21T01:10:06;97367.44;;;18.05;59.92
16030;BME280;34770;49.272;11.070;2023-05-21T01:12:33;97367.44;;;18.05;60.13
16030;BME280;34770;49.272;11.070;2023-05-21T01:15:01;97364.03;;;18.03;60.37
16030;BME280;34770;49.272;11.070;2023-05-21T01:17:28;97357.91;;;18.01;60.42
16030;BME280;34770;49.272;11.070;2023-05-21T01:19:56;97362.25;;;17.95;60.78
16030;BME280;34770;49.272;11.070;2023-05-21T01:22:22;97364.78;;;17.96;60.25
16030;BME280;34770;49.272;11.070;2023-05-21T01:24:49;97358.09;;;17.99;60.18
16030;BME280;34770;49.272;11.070;2023-05-21T01:27:15;97357.06;;;17.85;60.36
16030;BME280;34770;49.272;11.070;2023-05-21T01:29:41;97366.63;;;17.89;60.66
16030;BME280;34770;49.272;11.070;2023-05-21T01:34:59;97360.66;;;17.86;61.11
16030;BME280;34770;49.272;11.070;2023-05-21T01:40:00;97359.16;;;17.83;60.91
16030;BME280;34770;49.272;11.070;2023-05-21T01:42:28;97335.38;;;17.69;60.91
16030;BME280;34770;49.272;11.070;2023-05-21T01:44:56;97353.91;;;17.82;60.61
16030;BME280;34770;49.272;11.070;2023-05-21T01:47:23;97358.19;;;17.91;60.81
16030;BME280;34770;49.272;11.070;2023-05-21T01:49:51;97341.00;;;17.82;61.06
16030;BME280;34770;49.272;11.070;2023-05-21T01:52:17;97333.84;;;17.81;61.00
16030;BME280;34770;49.272;11.070;2023-05-21T01:54:43;97335.94;;;17.79;60.84
16030;BME280;34770;49.272;11.070;2023-05-21T01:57:08;97350.78;;;17.85;60.84
16030;BME280;34770;49.272;11.070;2023-05-21T01:59:34;97353.69;;;17.83;61.20
16030;BME280;34770;49.272;11.070;2023-05-21T02:02:00;97349.97;;;17.91;61.21
16030;BME280;34770;49.272;11.070;2023-05-21T02:04:26;97351.59;;;17.85;61.58
16030;BME280;34770;49.272;11.070;2023-05-21T02:06:51;97343.09;;;17.80;61.48
16030;BME280;34770;49.272;11.070;2023-05-21T02:09:19;97355.88;;;17.88;61.39
16030;BME280;34770;49.272;11.070;2023-05-21T02:11:44;97358.78;;;17.86;61.27
16030;BME280;34770;49.272;11.070;2023-05-21T02:17:02;97351.44;;;17.72;62.78
16030;BME280;34770;49.272;11.070;2023-05-21T02:19:28;97350.16;;;17.68;62.01
16030;BME280;34770;49.272;11.070;2023-05-21T02:21:53;97333.50;;;17.55;62.58
16030;BME280;34770;49.272;11.070;2023-05-21T02:24:18;97343.13;;;17.51;62.71
16030;BME280;34770;49.272;11.070;2023-05-21T02:26:46;97336.16;;;17.49;63.13
16030;BME280;34770;49.272;11.070;2023-05-21T02:29:13;97349.66;;;17.50;63.08
16030;BME280;34770;49.272;11.070;2023-05-21T02:31:39;97342.28;;;17.36;63.66
16030;BME280;34770;49.272;11.070;2023-05-21T02:34:04;97353.72;;;17.39;63.52
16030;BME280;34770;49.272;11.070;2023-05-21T02:36:32;97352.00;;;17.38;63.66
16030;BME280;34770;49.272;11.070;2023-05-21T02:38:57;97344.44;;;17.40;63.38
16030;BME280;34770;49.272;11.070;2023-05-21T02:41:23;97350.22;;;17.31;63.51
16030;BME280;34770;49.272;11.070;2023-05-21T02:43:48;97328.13;;;17.18;63.63
16030;BME280;34770;49.272;11.070;2023-05-21T02:46:14;97337.41;;;17.31;64.01
16030;BME280;34770;49.272;11.070;2023-05-21T02:48:39;97343.41;;;17.27;64.25
16030;BME280;34770;49.272;11.070;2023-05-21T02:51:05;97345.41;;;17.18;65.17
16030;BME280;34770;49.272;11.070;2023-05-21T02:53:30;97343.13;;;17.07;65.35
16030;BME280;34770;49.272;11.070;2023-05-21T02:55:56;97335.22;;;16.98;65.23
16030;BME280;34770;49.272;11.070;2023-05-21T02:58:21;97339.53;;;17.07;65.03
16030;BME280;34770;49.272;11.070;2023-05-21T03:00:50;97337.28;;;17.10;64.79
16030;BME280;34770;49.272;11.070;2023-05-21T03:03:15;97344.00;;;17.08;65.53
16030;BME280;34770;49.272;11.070;2023-05-21T03:05:40;97348.41;;;16.94;66.10
16030;BME280;34770;49.272;11.070;2023-05-21T03:08:06;97334.72;;;16.79;66.31
16030;BME280;34770;49.272;11.070;2023-05-21T03:10:31;97360.97;;;16.89;66.21
16030;BME280;34770;49.272;11.070;2023-05-21T03:12:57;97349.53;;;16.85;66.24
16030;BME280;34770;49.272;11.070;2023-05-21T03:15:22;97357.75;;;16.85;66.64
16030;BME280;34770;49.272;11.070;2023-05-21T03:17:49;97353.16;;;16.63;66.62
16030;BME280;34770;49.272;11.070;2023-05-21T03:20:15;97361.50;;;16.69;67.22
16030;BME280;34770;49.272;11.070;2023-05-21T03:22:43;97364.97;;;16.63;67.41
16030;BME280;34770;49.272;11.070;2023-05-21T03:25:09;97359.13;;;16.66;67.61
16030;BME280;34770;49.272;11.070;2023-05-21T03:27:36;97348.47;;;16.49;67.62
16030;BME280;34770;49.272;11.070;2023-05-21T03:30:02;97347.53;;;16.42;68.00
16030;BME280;34770;49.272;11.070;2023-05-21T03:32:28;97358.81;;;16.39;68.55
16030;BME280;34770;49.272;11.070;2023-05-21T03:34:53;97350.13;;;16.35;68.28
16030;BME280;34770;49.272;11.070;2023-05-21T03:37:19;97351.22;;;16.03;69.41
16030;BME280;34770;49.272;11.070;2023-05-21T03:39:44;97338.75;;;16.01;69.43
16030;BME280;34770;49.272;11.070;2023-05-21T03:42:10;97358.19;;;16.06;69.04
16030;BME280;34770;49.272;11.070;2023-05-21T03:44:37;97364.88;;;16.03;69.87
16030;BME280;34770;49.272;11.070;2023-05-21T03:47:02;97359.38;;;15.81;70.36
16030;BME280;34770;49.272;11.070;2023-05-21T03:49:28;97348.28;;;15.82;69.97
16030;BME280;34770;49.272;11.070;2023-05-21T03:51:53;97352.69;;;15.91;70.23
16030;BME280;34770;49.272;11.070;2023-05-21T03:54:19;97356.94;;;15.94;70.15
16030;BME280;34770;49.272;11.070;2023-05-21T03:56:44;97358.22;;;15.75;70.18
16030;BME280;34770;49.272;11.070;2023-05-21T03:59:10;97357.00;;;15.86;70.49
16030;BME280;34770;49.272;11.070;2023-05-21T04:01:35;97348.09;;;15.84;70.52
16030;BME280;34770;49.272;11.070;2023-05-21T04:04:01;97350.63;;;15.93;70.20
16030;BME280;34770;49.272;11.070;2023-05-21T04:06:26;97359.34;;;15.89;70.07
16030;BME280;34770;49.272;11.070;2023-05-21T04:08:52;97359.34;;;15.89;70.55
16030;BME280;34770;49.272;11.070;2023-05-21T04:11:17;97355.78;;;15.88;70.55
16030;BME280;34770;49.272;11.070;2023-05-21T04:13:43;97346.88;;;15.86;69.96
16030;BME280;34770;49.272;11.070;2023-05-21T04:16:08;97367.88;;;15.94;70.70
16030;BME280;34770;49.272;11.070;2023-05-21T04:18:34;97361.25;;;15.88;70.50
16030;BME280;34770;49.272;11.070;2023-05-21T04:20:59;97370.75;;;15.92;70.43
16030;BME280;34770;49.272;11.070;2023-05-21T04:23:26;97345.88;;;15.87;70.39
16030;BME280;34770;49.272;11.070;2023-05-21T04:25:52;97370.53;;;16.02;70.45
16030;BME280;34770;49.272;11.070;2023-05-21T04:28:18;97369.94;;;16.14;70.19
16030;BME280;34770;49.272;11.070;2023-05-21T04:30:45;97378.31;;;16.13;70.28
16030;BME280;34770;49.272;11.070;2023-05-21T04:33:11;97377.59;;;16.19;70.52
16030;BME280;34770;49.272;11.070;2023-05-21T04:35:37;97370.06;;;16.21;70.13
16030;BME280;34770;49.272;11.070;2023-05-21T04:38:08;97369.88;;;16.22;69.73
16030;BME280;34770;49.272;11.070;2023-05-21T04:40:34;97380.88;;;16.37;69.70
16030;BME280;34770;49.272;11.070;2023-05-21T04:42:59;97356.19;;;16.22;68.78
16030;BME280;34770;49.272;11.070;2023-05-21T04:45:26;97388.19;;;16.45;69.56
16030;BME280;34770;49.272;11.070;2023-05-21T04:47:51;97386.59;;;16.50;69.60
16030;BME280;34770;49.272;11.070;2023-05-21T04:50:17;97379.47;;;16.41;69.89
16030;BME280;34770;49.272;11.070;2023-05-21T04:52:42;97380.44;;;16.48;70.13
16030;BME280;34770;49.272;11.070;2023-05-21T04:55:09;97382.31;;;16.48;69.51
16030;BME280;34770;49.272;11.070;2023-05-21T04:57:36;97387.78;;;16.48;69.78
16030;BME280;34770;49.272;11.070;2023-05-21T05:00:01;97379.78;;;16.46;69.73
16030;BME280;34770;49.272;11.070;2023-05-21T05:02:28;97376.16;;;16.54;69.88
16030;BME280;34770;49.272;11.070;2023-05-21T05:04:53;97386.94;;;16.55;70.19
16030;BME280;34770;49.272;11.070;2023-05-21T05:07:19;97389.31;;;16.73;69.59
16030;BME280;34770;49.272;11.070;2023-05-21T05:09:44;97395.00;;;16.71;69.83
16030;BME280;34770;49.272;11.070;2023-05-21T05:12:10;97394.53;;;16.83;69.11
16030;BME280;34770;49.272;11.070;2023-05-21T05:14:35;97388.25;;;16.97;69.31
16030;BME280;34770;49.272;11.070;2023-05-21T05:17:01;97388.91;;;16.99;68.40
16030;BME280;34770;49.272;11.070;2023-05-21T05:19:27;97396.50;;;17.11;68.64
16030;BME280;34770;49.272;11.070;2023-05-21T05:21:53;97382.13;;;16.95;68.97
16030;BME280;34770;49.272;11.070;2023-05-21T05:24:18;97382.06;;;17.17;68.81
16030;BME280;34770;49.272;11.070;2023-05-21T05:26:44;97397.91;;;17.22;68.88
16030;BME280;34770;49.272;11.070;2023-05-21T05:29:09;97401.22;;;17.17;67.24
16030;BME280;34770;49.272;11.070;2023-05-21T05:31:35;97389.22;;;17.33;68.66
16030;BME280;34770;49.272;11.070;2023-05-21T05:34:01;97377.41;;;17.32;68.61
16030;BME280;34770;49.272;11.070;2023-05-21T05:36:26;97397.59;;;17.54;67.54
16030;BME280;34770;49.272;11.070;2023-05-21T05:38:51;97390.38;;;17.53;67.90
16030;BME280;34770;49.272;11.070;2023-05-21T05:41:17;97390.94;;;17.63;67.88
16030;BME280;34770;49.272;11.070;2023-05-21T05:43:42;97388.09;;;17.71;68.56
16030;BME280;34770;49.272;11.070;2023-05-21T05:46:08;97387.16;;;17.79;67.80
16030;BME280;34770;49.272;11.070;2023-05-21T05:48:34;97385.44;;;17.92;67.96
16030;BME280;34770;49.272;11.070;2023-05-21T05:50:59;97391.63;;;18.16;66.64
16030;BME280;34770;49.272;11.070;2023-05-21T05:53:25;97393.47;;;18.30;66.26
16030;BME280;34770;49.272;11.070;2023-05-21T05:55:50;97386.22;;;18.43;67.28
16030;BME280;34770;49.272;11.070;2023-05-21T05:58:16;97392.00;;;18.48;63.81
16030;BME280;34770;49.272;11.070;2023-05-21T06:00:41;97376.91;;;18.59;64.10
16030;BME280;34770;49.272;11.070;2023-05-21T06:03:07;97386.16;;;18.79;65.42
16030;BME280;34770;49.272;11.070;2023-05-21T06:05:32;97388.22;;;18.98;63.42
16030;BME280;34770;49.272;11.070;2023-05-21T06:07:58;97386.81;;;19.09;63.54
16030;BME280;34770;49.272;11.070;2023-05-21T06:10:23;97390.66;;;19.15;61.66
16030;BME280;34770;49.272;11.070;2023-05-21T06:12:49;97379.03;;;19.13;59.51
16030;BME280;34770;49.272;11.070;2023-05-21T06:15:14;97378.09;;;19.27;60.77
16030;BME280;34770;49.272;11.070;2023-05-21T06:17:40;97387.09;;;19.42;58.69
16030;BME280;34770;49.272;11.070;2023-05-21T06:20:07;97368.50;;;19.44;58.25
16030;BME280;34770;49.272;11.070;2023-05-21T06:22:34;97363.00;;;19.44;58.49
16030;BME280;34770;49.272;11.070;2023-05-21T06:25:01;97375.78;;;19.58;57.94
16030;BME280;34770;49.272;11.070;2023-05-21T06:27:26;97379.41;;;19.65;57.86
16030;BME280;34770;49.272;11.070;2023-05-21T06:29:52;97372.06;;;19.72;57.33
16030;BME280;34770;49.272;11.070;2023-05-21T06:32:17;97370.53;;;19.63;56.93
16030;BME280;34770;49.272;11.070;2023-05-21T06:34:42;97365.56;;;19.86;56.90
16030;BME280;34770;49.272;11.070;2023-05-21T06:37:08;97371.97;;;20.00;56.72
16030;BME280;34770;49.272;11.070;2023-05-21T06:39:33;97380.47;;;20.11;55.86
16030;BME280;34770;49.272;11.070;2023-05-21T06:41:59;97376.59;;;19.99;55.46
16030;BME280;34770;49.272;11.070;2023-05-21T06:44:24;97388.91;;;20.10;56.11
16030;BME280;34770;49.272;11.070;2023-05-21T06:46:50;97366.50;;;20.06;55.42
16030;BME280;34770;49.272;11.070;2023-05-21T06:49:15;97382.19;;;20.19;54.55
16030;BME280;34770;49.272;11.070;2023-05-21T06:51:41;97372.53;;;20.36;54.89
16030;BME280;34770;49.272;11.070;2023-05-21T06:54:06;97367.03;;;20.36;53.92
16030;BME280;34770;49.272;11.070;2023-05-21T06:56:32;97380.81;;;20.56;54.28
16030;BME280;34770;49.272;11.070;2023-05-21T06:58:57;97384.91;;;20.79;53.66
16030;BME280;34770;49.272;11.070;2023-05-21T07:01:23;97386.69;;;20.27;53.68
16030;BME280;34770;49.272;11.070;2023-05-21T07:03:49;97381.72;;;20.15;54.44
16030;BME280;34770;49.272;11.070;2023-05-21T07:06:14;97381.72;;;20.15;54.83
16030;BME280;34770;49.272;11.070;2023-05-21T07:08:41;97377.81;;;20.31;53.88
16030;BME280;34770;49.272;11.070;2023-05-21T07:11:06;97382.72;;;20.42;53.62
16030;BME280;34770;49.272;11.070;2023-05-21T07:13:36;97368.06;;;20.35;53.96
16030;BME280;34770;49.272;11.070;2023-05-21T07:16:01;97379.34;;;20.66;53.13
16030;BME280;34770;49.272;11.070;2023-05-21T07:18:27;97385.50;;;20.75;52.62
16030;BME280;34770;49.272;11.070;2023-05-21T07:20:52;97393.56;;;20.83;53.58
16030;BME280;34770;49.272;11.070;2023-05-21T07:23:18;97378.75;;;20.84;52.84
16030;BME280;34770;49.272;11.070;2023-05-21T07:25:45;97385.09;;;20.98;52.05
16030;BME280;34770;49.272;11.070;2023-05-21T07:28:10;97388.28;;;21.01;51.53
16030;BME280;34770;49.272;11.070;2023-05-21T07:30:36;97373.47;;;21.09;51.68
16030;BME280;34770;49.272;11.070;2023-05-21T07:33:02;97378.97;;;21.28;51.21
16030;BME280;34770;49.272;11.070;2023-05-21T07:35:28;97389.53;;;21.51;51.61
16030;BME280;34770;49.272;11.070;2023-05-21T07:37:54;97383.16;;;21.57;51.27
16030;BME280;34770;49.272;11.070;2023-05-21T07:40:19;97386.16;;;21.43;50.74
16030;BME280;34770;49.272;11.070;2023-05-21T07:42:45;97378.09;;;21.54;50.42
16030;BME280;34770;49.272;11.070;2023-05-21T07:45:10;97380.78;;;21.80;50.22
16030;BME280;34770;49.272;11.070;2023-05-21T07:47:36;97368.28;;;21.65;50.38
16030;BME280;34770;49.272;11.070;2023-05-21T07:50:01;97381.66;;;21.74;49.59
16030;BME280;34770;49.272;11.070;2023-05-21T07:52:27;97384.59;;;21.79;50.20
16030;BME280;34770;49.272;11.070;2023-05-21T07:54:52;97377.81;;;21.88;50.16
16030;BME280;34770;49.272;11.070;2023-05-21T07:57:18;97373.97;;;21.83;50.06
16030;BME280;34770;49.272;11.070;2023-05-21T07:59:43;97371.25;;;21.70;49.28
16030;BME280;34770;49.272;11.070;2023-05-21T08:02:08;97382.69;;;21.73;49.71
16030;BME280;34770;49.272;11.070;2023-05-21T08:04:34;97379.91;;;21.86;49.57
16030;BME280;34770;49.272;11.070;2023-05-21T08:07:00;97384.31;;;22.07;49.05
16030;BME280;34770;49.272;11.070;2023-05-21T08:09:26;97373.34;;;21.94;48.71
16030;BME280;34770;49.272;11.070;2023-05-21T08:11:51;97378.69;;;22.33;49.18
16030;BME280;34770;49.272;11.070;2023-05-21T08:14:16;97365.97;;;22.64;48.33
16030;BME280;34770;49.272;11.070;2023-05-21T08:16:42;97367.84;;;22.70;47.34
16030;BME280;34770;49.272;11.070;2023-05-21T08:19:09;97373.97;;;23.03;46.74
16030;BME280;34770;49.272;11.070;2023-05-21T08:21:34;97369.91;;;22.81;46.01
16030;BME280;34770;49.272;11.070;2023-05-21T08:24:01;97378.59;;;23.09;46.37
16030;BME280;34770;49.272;11.070;2023-05-21T08:26:27;97364.38;;;22.81;45.08
16030;BME280;34770;49.272;11.070;2023-05-21T08:28:52;97372.97;;;22.97;45.55
16030;BME280;34770;49.272;11.070;2023-05-21T08:31:18;97378.59;;;23.09;45.31
16030;BME280;34770;49.272;11.070;2023-05-21T08:33:51;97379.75;;;23.26;45.10
16030;BME280;34770;49.272;11.070;2023-05-21T08:36:17;97373.97;;;23.52;45.02
16030;BME280;34770;49.272;11.070;2023-05-21T08:38:43;97373.31;;;23.93;43.82
16030;BME280;34770;49.272;11.070;2023-05-21T08:41:10;97378.47;;;23.90;43.26
16030;BME280;34770;49.272;11.070;2023-05-21T08:43:37;97359.25;;;23.34;43.67
16030;BME280;34770;49.272;11.070;2023-05-21T08:46:03;97375.13;;;23.45;44.04
16030;BME280;34770;49.272;11.070;2023-05-21T08:48:30;97360.22;;;23.64;43.08
16030;BME280;34770;49.272;11.070;2023-05-21T08:50:55;97359.38;;;23.63;43.33
16030;BME280;34770;49.272;11.070;2023-05-21T08:53:22;97364.09;;;23.63;43.07
16030;BME280;34770;49.272;11.070;2023-05-21T08:55:50;97369.53;;;23.70;43.45
16030;BME280;34770;49.272;11.070;2023-05-21T08:58:21;97368.94;;;23.67;43.11
16030;BME280;34770;49.272;11.070;2023-05-21T09:00:47;97359.06;;;23.53;43.42
16030;BME280;34770;49.272;11.070;2023-05-21T09:03:16;97369.84;;;23.37;44.06
16030;BME280;34770;49.272;11.070;2023-05-21T09:05:42;97361.56;;;23.37;43.53
16030;BME280;34770;49.272;11.070;2023-05-21T09:08:26;97368.38;;;23.34;44.24
16030;BME280;34770;49.272;11.070;2023-05-21T09:10:53;97366.63;;;23.64;43.75
16030;BME280;34770;49.272;11.070;2023-05-21T09:13:19;97363.25;;;23.62;43.38
16030;BME280;34770;49.272;11.070;2023-05-21T09:15:46;97372.00;;;23.59;43.44
16030;BME280;34770;49.272;11.070;2023-05-21T09:18:12;97373.41;;;23.69;42.57
16030;BME280;34770;49.272;11.070;2023-05-21T09:20:38;97382.91;;;23.54;43.22
16030;BME280;34770;49.272;11.070;2023-05-21T09:23:05;97355.63;;;23.76;43.52
16030;BME280;34770;49.272;11.070;2023-05-21T09:25:37;97373.69;;;23.60;43.35
16030;BME280;34770;49.272;11.070;2023-05-21T09:28:02;97369.53;;;23.51;44.11
16030;BME280;34770;49.272;11.070;2023-05-21T09:30:28;97379.50;;;23.52;43.94
16030;BME280;34770;49.272;11.070;2023-05-21T09:32:58;97360.09;;;23.34;43.56
16030;BME280;34770;49.272;11.070;2023-05-21T09:35:24;97378.16;;;23.37;44.04
16030;BME280;34770;49.272;11.070;2023-05-21T09:37:50;97369.63;;;23.38;44.34
16030;BME280;34770;49.272;11.070;2023-05-21T09:40:20;97380.91;;;23.37;44.34
16030;BME280;34770;49.272;11.070;2023-05-21T09:45:26;97367.22;;;23.48;43.67
16030;BME280;34770;49.272;11.070;2023-05-21T09:47:53;97374.25;;;23.69;43.50
16030;BME280;34770;49.272;11.070;2023-05-21T09:50:21;97376.59;;;23.84;42.88
16030;BME280;34770;49.272;11.070;2023-05-21T09:52:48;97363.84;;;23.64;43.19
16030;BME280;34770;49.272;11.070;2023-05-21T09:55:15;97369.75;;;23.86;43.67
16030;BME280;34770;49.272;11.070;2023-05-21T09:57:50;97353.94;;;23.75;42.99
16030;BME280;34770;49.272;11.070;2023-05-21T10:00:20;97367.47;;;23.83;42.96
16030;BME280;34770;49.272;11.070;2023-05-21T10:02:47;97369.75;;;23.86;43.41
16030;BME280;34770;49.272;11.070;2023-05-21T10:05:14;97372.16;;;23.83;43.22
16030;BME280;34770;49.272;11.070;2023-05-21T10:07:50;97368.94;;;23.86;43.15
16030;BME280;34770;49.272;11.070;2023-05-21T10:10:20;97373.16;;;23.88;43.77
16030;BME280;34770;49.272;11.070;2023-05-21T10:12:51;97372.53;;;23.86;43.79
16030;BME280;34770;49.272;11.070;2023-05-21T10:15:22;97375.50;;;24.09;43.68
16030;BME280;34770;49.272;11.070;2023-05-21T10:17:48;97360.97;;;24.14;42.98
16030;BME280;34770;49.272;11.070;2023-05-21T10:20:14;97350.63;;;24.39;42.47
16030;BME280;34770;49.272;11.070;2023-05-21T10:22:40;97365.25;;;24.58;42.56
16030;BME280;34770;49.272;11.070;2023-05-21T10:25:07;97357.72;;;24.76;42.78
16030;BME280;34770;49.272;11.070;2023-05-21T10:27:36;97336.59;;;24.94;42.32
16030;BME280;34770;49.272;11.070;2023-05-21T10:30:06;97359.28;;;25.14;42.47
16030;BME280;34770;49.272;11.070;2023-05-21T10:32:33;97351.56;;;25.16;41.33
16030;BME280;34770;49.272;11.070;2023-05-21T10:34:59;97339.28;;;25.23;40.97
16030;BME280;34770;49.272;11.070;2023-05-21T10:37:26;97343.84;;;25.41;40.62
16030;BME280;34770;49.272;11.070;2023-05-21T10:39:53;97335.53;;;25.41;40.74
16030;BME280;34770;49.272;11.070;2023-05-21T10:56:22;97341.22;;;25.23;38.66
16030;BME280;34770;49.272;11.070;2023-05-21T10:59:14;97330.34;;;25.45;38.24
16030;BME280;34770;49.272;11.070;2023-05-21T11:01:49;97336.91;;;25.62;37.21
16030;BME280;34770;49.272;11.070;2023-05-21T11:04:27;97323.88;;;25.74;37.03
16030;BME280;34770;49.272;11.070;2023-05-21T11:06:54;97331.06;;;25.86;36.83
16030;BME280;34770;49.272;11.070;2023-05-21T11:09:20;97337.84;;;25.90;36.98
16030;BME280;34770;49.272;11.070;2023-05-21T11:11:55;97337.69;;;25.97;36.87
16030;BME280;34770;49.272;11.070;2023-05-21T11:14:35;97318.56;;;26.12;36.89
16030;BME280;34770;49.272;11.070;2023-05-21T11:17:37;97324.22;;;26.29;37.41
16030;BME280;34770;49.272;11.070;2023-05-21T11:20:07;97320.88;;;26.04;37.33
16030;BME280;34770;49.272;11.070;2023-05-21T11:22:34;97322.41;;;26.23;37.08
16030;BME280;34770;49.272;11.070;2023-05-21T11:25:01;97317.06;;;26.61;35.83
16030;BME280;34770;49.272;11.070;2023-05-21T11:27:40;97303.41;;;27.04;35.38
16030;BME280;34770;49.272;11.070;2023-05-21T11:30:14;97314.88;;;26.91;35.72
16030;BME280;34770;49.272;11.070;2023-05-21T11:35:58;97306.28;;;26.36;35.17
16030;BME280;34770;49.272;11.070;2023-05-21T11:38:31;97300.69;;;26.20;35.44
16030;BME280;34770;49.272;11.070;2023-05-21T11:41:02;97306.84;;;26.78;34.75
16030;BME280;34770;49.272;11.070;2023-05-21T11:43:28;97280.41;;;26.64;33.82
16030;BME280;34770;49.272;11.070;2023-05-21T11:45:53;97304.84;;;27.07;33.49
16030;BME280;34770;49.272;11.070;2023-05-21T11:48:25;97304.25;;;27.05;31.12
16030;BME280;34770;49.272;11.070;2023-05-21T11:50:51;97305.69;;;27.24;32.07
16030;BME280;34770;49.272;11.070;2023-05-21T11:53:17;97286.19;;;27.24;30.76
16030;BME280;34770;49.272;11.070;2023-05-21T11:55:42;97302.97;;;27.13;31.42
16030;BME280;34770;49.272;11.070;2023-05-21T11:58:12;97282.13;;;26.65;32.28
16030;BME280;34770;49.272;11.070;2023-05-21T12:00:39;97294.00;;;26.77;33.14
16030;BME280;34770;49.272;11.070;2023-05-21T12:03:04;97302.47;;;26.82;33.39
16030;BME280;34770;49.272;11.070;2023-05-21T12:05:46;97300.78;;;26.98;32.94
16030;BME280;34770;49.272;11.070;2023-05-21T12:08:12;97300.28;;;27.18;31.83
16030;BME280;34770;49.272;11.070;2023-05-21T12:10:37;97299.03;;;27.25;32.60
16030;BME280;34770;49.272;11.070;2023-05-21T12:13:04;97305.81;;;27.34;32.68
16030;BME280;34770;49.272;11.070;2023-05-21T12:15:30;97279.34;;;27.32;31.73
16030;BME280;34770;49.272;11.070;2023-05-21T12:17:56;97294.97;;;27.49;31.97
16030;BME280;34770;49.272;11.070;2023-05-21T12:20:21;97287.28;;;27.40;32.26
16030;BME280;34770;49.272;11.070;2023-05-21T12:22:48;97306.28;;;27.43;32.97
16030;BME280;34770;49.272;11.070;2023-05-21T12:25:16;97288.47;;;27.27;32.56
16030;BME280;34770;49.272;11.070;2023-05-21T12:27:44;97288.72;;;27.59;32.72
16030;BME280;34770;49.272;11.070;2023-05-21T12:30:10;97283.50;;;27.46;31.00
16030;BME280;34770;49.272;11.070;2023-05-21T12:32:39;97276.22;;;27.61;33.88
16030;BME280;34770;49.272;11.070;2023-05-21T12:35:08;97288.97;;;27.79;33.14
16030;BME280;34770;49.272;11.070;2023-05-21T12:37:33;97294.66;;;27.84;32.07
16030;BME280;34770;49.272;11.070;2023-05-21T12:40:02;97296.69;;;27.94;31.91
16030;BME280;34770;49.272;11.070;2023-05-21T12:42:36;97303.69;;;27.96;33.10
16030;BME280;34770;49.272;11.070;2023-05-21T12:45:08;97300.13;;;27.79;31.93
16030;BME280;34770;49.272;11.070;2023-05-21T12:47:34;97282.84;;;27.77;32.24
16030;BME280;34770;49.272;11.070;2023-05-21T12:50:02;97298.38;;;28.11;32.06
16030;BME280;34770;49.272;11.070;2023-05-21T12:52:28;97288.81;;;28.07;31.93
16030;BME280;34770;49.272;11.070;2023-05-21T12:54:56;97295.56;;;27.51;33.31
16030;BME280;34770;49.272;11.070;2023-05-21T12:57:26;97297.59;;;27.56;33.54
16030;BME280;34770;49.272;11.070;2023-05-21T12:59:57;97301.97;;;27.19;34.09
16030;BME280;34770;49.272;11.070;2023-05-21T13:02:28;97309.31;;;27.41;32.81
16030;BME280;34770;49.272;11.070;2023-05-21T13:05:01;97319.75;;;27.34;33.11
16030;BME280;34770;49.272;11.070;2023-05-21T13:07:29;97305.03;;;28.10;31.64
16030;BME280;34770;49.272;11.070;2023-05-21T13:09:56;97302.72;;;28.51;31.12
16030;BME280;34770;49.272;11.070;2023-05-21T13:12:23;97299.06;;;28.72;31.24
16030;BME280;34770;49.272;11.070;2023-05-21T13:14:49;97302.09;;;29.24;30.12
16030;BME280;34770;49.272;11.070;2023-05-21T13:17:16;97299.13;;;29.36;29.57